Stations météo

réclame
Mon MeteoGroup
Reggio Calabria, Italie (16422): Température de l'air & dewpoint: 18.10.2018 07:00:00 - 24.10.2018 07:00:00 (CEST)Reggio Calabria, Italie (16422): Vitesse du vent: 18.10.2018 07:00:00 - 24.10.2018 07:00:00 (CEST)Reggio Calabria, Italie (16422): Direction du vent: 18.10.2018 07:00:00 - 24.10.2018 07:00:00 (CEST)Reggio Calabria, Italie (16422): visibility: 18.10.2018 07:00:00 - 24.10.2018 07:00:00 (CEST)
Date & Time tt [°C] td [°C] ff [km/h] ff [knt] dd vv [km]
24.10.2018 07:00:00 18,0 14,0 16 9 N 10
24.10.2018 06:00:00 19,0 14,0 16 9 NNE 10
24.10.2018 05:00:00 - - - - - -
24.10.2018 04:00:00 - - - - - -
24.10.2018 03:00:00 - - - - - -
24.10.2018 02:00:00 - - - - - -
24.10.2018 01:00:00 - - - - - -
24.10.2018 00:00:00 19,0 13,0 11 6 N 10
23.10.2018 23:00:00 20,0 12,0 18 10 N 10
23.10.2018 22:00:00 20,0 11,0 26 14 N 10
23.10.2018 21:00:00 19,0 13,0 21 11 N 10
23.10.2018 20:00:00 19,0 14,0 18 10 N 10
23.10.2018 19:00:00 20,0 14,0 18 10 NNW 10
23.10.2018 18:00:00 19,0 14,0 22 12 N 10
23.10.2018 17:00:00 21,0 13,0 24 13 N 10
23.10.2018 16:00:00 22,0 14,0 22 12 N 10
23.10.2018 15:00:00 21,0 13,0 9 5 - 10
23.10.2018 14:00:00 21,0 15,0 26 14 N 10
23.10.2018 13:00:00 20,0 12,0 26 14 N 10
23.10.2018 12:00:00 21,0 13,0 18 10 N 10
23.10.2018 11:00:00 20,0 14,0 13 7 N 10
23.10.2018 10:00:00 20,0 13,0 5 3 - 10
23.10.2018 09:00:00 18,0 13,0 5 3 NE 10
23.10.2018 08:00:00 15,0 12,0 8 4 N 10
23.10.2018 07:00:00 14,0 12,0 11 6 N 10
23.10.2018 06:00:00 14,0 12,0 8 4 N 10
23.10.2018 05:00:00 - - - - - -
23.10.2018 04:00:00 - - - - - -
23.10.2018 03:00:00 - - - - - -
23.10.2018 02:00:00 - - - - - -
23.10.2018 01:00:00 - - - - - -
23.10.2018 00:00:00 16,0 14,0 13 7 NE 10
22.10.2018 23:00:00 16,0 14,0 9 5 NNW 10
22.10.2018 22:00:00 16,0 13,0 15 8 NE 10
22.10.2018 21:00:00 17,0 13,0 13 7 ENE 10
22.10.2018 20:00:00 18,0 14,0 9 5 NNE 10
22.10.2018 19:00:00 17,0 14,0 18 10 NNE 10
22.10.2018 18:00:00 19,0 15,0 21 11 N 10
22.10.2018 17:00:00 21,0 15,0 4 2 - 10
22.10.2018 16:00:00 - - - - - -
22.10.2018 15:00:00 22,0 15,0 11 6 S 10
22.10.2018 14:00:00 22,0 15,0 15 8 SSW 10
22.10.2018 13:00:00 22,0 15,0 15 8 SSW 10
22.10.2018 12:00:00 23,0 14,0 9 5 SW 10
22.10.2018 11:00:00 23,0 14,0 8 4 NNE 10
22.10.2018 10:00:00 20,0 14,0 11 6 ENE 10
22.10.2018 09:00:00 17,0 14,0 9 5 NNE 10
22.10.2018 08:00:00 16,0 15,0 16 9 ENE 7
22.10.2018 07:00:00 19,0 15,0 11 6 WSW 10
22.10.2018 06:00:00 19,0 15,0 13 7 S 10
22.10.2018 05:00:00 - - - - - -
22.10.2018 04:00:00 - - - - - -
22.10.2018 03:00:00 - - - - - -
22.10.2018 02:00:00 - - - - - -
22.10.2018 01:00:00 - - - - - -
22.10.2018 00:00:00 18,0 14,0 5 3 ENE 10
21.10.2018 23:00:00 19,0 14,0 8 4 NE 10
21.10.2018 22:00:00 18,0 15,0 9 5 NE 10
21.10.2018 21:00:00 19,0 15,0 9 5 NE 10
21.10.2018 20:00:00 20,0 17,0 8 4 NE 10
21.10.2018 19:00:00 21,0 17,0 8 4 SW 10
21.10.2018 18:00:00 22,0 17,0 13 7 SSW 10
21.10.2018 17:00:00 22,0 18,0 16 9 S 10
21.10.2018 16:00:00 23,0 18,0 16 9 SSW 10
21.10.2018 15:00:00 23,0 17,0 21 11 SSW 10
21.10.2018 14:00:00 24,0 17,0 21 11 SSW 10
21.10.2018 13:00:00 24,0 17,0 18 10 SSW 10
21.10.2018 12:00:00 - - - - - -
21.10.2018 11:00:00 23,0 16,0 4 2 - 10
21.10.2018 10:00:00 22,0 15,0 4 2 - 10
21.10.2018 09:00:00 21,0 15,0 4 2 - 10
21.10.2018 08:00:00 17,0 14,0 9 5 NE 10
21.10.2018 07:00:00 16,0 13,0 11 6 NE 10
21.10.2018 06:00:00 17,0 13,0 8 4 ENE 10
21.10.2018 05:00:00 - - - - - -
21.10.2018 04:00:00 - - - - - -
21.10.2018 03:00:00 - - - - - -
21.10.2018 02:00:00 - - - - - -
21.10.2018 01:00:00 - - - - - -
21.10.2018 00:00:00 19,0 14,0 8 4 NNE 10
20.10.2018 23:00:00 18,0 14,0 8 4 ENE 10
20.10.2018 22:00:00 18,0 14,0 9 5 ENE 10
20.10.2018 21:00:00 19,0 15,0 8 4 ENE 10
20.10.2018 20:00:00 19,0 16,0 8 4 NE 10
20.10.2018 19:00:00 21,0 17,0 13 7 N 10
20.10.2018 18:00:00 23,0 15,0 11 6 NNW 10
20.10.2018 17:00:00 24,0 18,0 9 5 W 10
20.10.2018 16:00:00 24,0 18,0 9 5 W 10
20.10.2018 15:00:00 24,0 18,0 9 5 SW 10
20.10.2018 14:00:00 24,0 18,0 9 5 SW 10
20.10.2018 13:00:00 24,0 18,0 11 6 SW 10
20.10.2018 12:00:00 24,0 18,0 15 8 WSW 10
20.10.2018 11:00:00 25,0 16,0 8 4 N 10
20.10.2018 10:00:00 24,0 17,0 5 3 NE 10
20.10.2018 09:00:00 22,0 17,0 5 3 NE 10
20.10.2018 08:00:00 18,0 16,0 11 6 NE 10
20.10.2018 07:00:00 18,0 15,0 9 5 NNE 10
20.10.2018 06:00:00 18,0 15,0 13 7 NE 10
20.10.2018 05:00:00 - - - - - -
20.10.2018 04:00:00 - - - - - -
20.10.2018 03:00:00 - - - - - -
20.10.2018 02:00:00 - - - - - -
20.10.2018 01:00:00 - - - - - -
20.10.2018 00:00:00 20,0 17,0 9 5 ENE 10
19.10.2018 23:00:00 21,0 17,0 8 4 NNE 10
19.10.2018 22:00:00 21,0 17,0 11 6 NE 10
19.10.2018 21:00:00 21,0 18,0 8 4 NNE 10
19.10.2018 20:00:00 21,0 18,0 8 4 ENE 10
19.10.2018 19:00:00 22,0 18,0 8 4 ENE 10
19.10.2018 18:00:00 23,0 19,0 16 9 W 10
19.10.2018 17:00:00 24,0 19,0 22 12 W 10
19.10.2018 16:00:00 25,0 19,0 22 12 SSW 10
19.10.2018 15:00:00 26,0 19,0 22 12 SSW 10
19.10.2018 14:00:00 25,0 18,0 26 14 SW 10
19.10.2018 13:00:00 24,0 18,0 11 6 NW 10
19.10.2018 12:00:00 23,0 19,0 11 6 N 10
19.10.2018 11:00:00 23,0 19,0 13 7 NE 10
19.10.2018 10:00:00 21,0 19,0 22 12 SW 10
19.10.2018 09:00:00 21,0 18,0 9 5 - 10
19.10.2018 08:00:00 20,0 17,0 4 2 - 10
19.10.2018 07:00:00 20,0 17,0 5 3 SE 10
19.10.2018 06:00:00 20,0 17,0 13 7 NE 10
19.10.2018 05:00:00 - - - - - -
19.10.2018 04:00:00 - - - - - -
19.10.2018 03:00:00 - - - - - -
19.10.2018 02:00:00 - - - - - -
19.10.2018 01:00:00 - - - - - -
19.10.2018 00:00:00 21,0 18,0 5 3 NNE 10
18.10.2018 23:00:00 22,0 17,0 9 5 NE 10
18.10.2018 22:00:00 22,0 18,0 16 9 N 10
18.10.2018 21:00:00 22,0 17,0 9 5 NW 10
18.10.2018 20:00:00 22,0 18,0 15 8 - 10
18.10.2018 19:00:00 23,0 18,0 28 15 W 10
18.10.2018 18:00:00 24,0 15,0 11 6 NW 10
18.10.2018 17:00:00 25,0 15,0 9 5 SE 10
18.10.2018 16:00:00 24,0 17,0 24 13 SSW 10
18.10.2018 15:00:00 25,0 16,0 26 14 S 10
18.10.2018 14:00:00 25,0 18,0 22 12 SSW 10
18.10.2018 13:00:00 25,0 16,0 26 14 SW 10
18.10.2018 12:00:00 24,0 16,0 28 15 SSW 10
18.10.2018 11:00:00 25,0 17,0 26 14 S 10
18.10.2018 10:00:00 24,0 16,0 34 18 S 10
18.10.2018 09:00:00 23,0 16,0 31 17 S 10
18.10.2018 08:00:00 22,0 17,0 37 20 S 10
18.10.2018 07:00:00 20,0 16,0 9 5 - 10

tt = Température de l'air
td = dewpoint
ff = Vitesse du vent
dd = Direction du vent
vv = visibility

stations d'obs. à proximité